Billings, MT

8:02 AM MDT on April 27, 2015 (GMT -0600)
Downtown Billings | | Change Station
CLOSE
Current Station
Personal Weather Station
Location: Billings, MT
Elevation: 3127 ft
Nearby Weather Stations

Elev 3127 ft 45.78 °N, 108.50 °W | Updated 35 minutes ago

Fog
Fog
37.3 °F
Feels Like 37 °F
N
1.1
Wind Variable Wind from SSW
Gusts 3.4 mph

Today
High -- | Low -- °F
--% Chance of Precip.
Yesterday
High -- | Low -- °F
Precip. -- in
6:07 AM 8:16 PM
Waxing Gibbous, 65% visible
Pressure 30.40 in
Visibility 10.0 miles
Clouds Scattered Clouds 200 ft
Scattered Clouds 8000 ft
Windchill 37 °F
Dew Point 35 °F
Humidity 90%
Rainfall -999.00 in
Snow Depth Not available.
UV 1 out of 12
Pollen 7.50 out of 12
Air Quality Not available.
Flu Activity Local Activity
METAR KBIL 271353Z 21007KT 10SM VCFG SCT002 SCT080 02/02 A3033 RMK AO2 SLP294 VIS LWR W VCFG W T00220017

More Conditions Fewer Conditions

Pressure 30.40 in
Visibility 10.0 miles
Clouds Scattered Clouds 200 ft
Scattered Clouds 8000 ft
Windchill 37 °F
Dew Point 35 °F
Humidity 90%
Rainfall -999.00 in
Snow Depth Not available.
UV 1 out of 12
Pollen 7.50 out of 12
Air Quality Not available.
Flu Activity Local Activity
METAR KBIL 271353Z 21007KT 10SM VCFG SCT002 SCT080 02/02 A3033 RMK AO2 SLP294 VIS LWR W VCFG W T00220017

More Conditions Fewer Conditions

10-Day Weather Forecast

Almanac

Astronomy

Apr. 27, 2015 Rise Set
Actual Time
Civil Twilight
Nautical Twilight
Astronomical Twilight
Moon
Length of Visible Light
Length of Day
Tomorrow will be .
, % of the Moon is Illuminated

Today's Extremes

State Highs State Lows

Community

WunderPhotos

Upload Photos

1,817,309 photos uploaded!

WunderBlogs® & News

Nearby

Air Quality

  Air Quality AQ Index Pollutant
Not available.

Snow Depth

Station Depth Elevation

Earthquake Activity

City Distance Mag. Time & Date
Minimum magnitude displayed is 2.5.

Coastal Water Temperatures

Place Temperature

Stations

Nearby Weather Stations

Station Location Temp. Windchill Dew Point Humidity Wind Precip. Elev Updated Type